createdAt,value
2022-08-23T00:02:31.691Z,84.05
2022-08-23T00:07:39.092Z,84.84
2022-08-23T00:12:44.228Z,84.76
2022-08-23T00:17:50.551Z,84.66
2022-08-23T00:22:52.357Z,84.01
2022-08-23T00:27:54.127Z,83.91
2022-08-23T00:32:58.039Z,84.44
2022-08-23T00:38:32.262Z,83.87
2022-08-23T00:43:54.640Z,84.21
2022-08-23T00:48:57.604Z,83.96
2022-08-23T00:54:03.416Z,83.97
2022-08-23T00:59:08.064Z,83.40
2022-08-23T01:04:13.328Z,84.14
2022-08-23T01:09:18.978Z,83.51
2022-08-23T01:15:23.233Z,82.88
2022-08-23T01:20:26.904Z,83.90
2022-08-23T01:25:33.402Z,82.96
2022-08-23T01:30:39.006Z,83.96
2022-08-23T01:35:50.035Z,83.51
2022-08-23T01:40:52.291Z,82.26
2022-08-23T01:45:57.186Z,82.19
2022-08-23T01:51:00.755Z,81.70
2022-08-23T01:56:08.466Z,82.83
2022-08-23T02:01:14.485Z,82.17
2022-08-23T02:06:16.430Z,82.17
2022-08-23T02:11:23.549Z,81.74
2022-08-23T02:16:39.864Z,80.86
2022-08-23T02:21:47.197Z,81.26
2022-08-23T02:26:56.745Z,80.20
2022-08-23T02:32:01.977Z,80.82
2022-08-23T02:37:10.505Z,81.38
2022-08-23T02:42:15.034Z,80.86
2022-08-23T02:47:18.923Z,81.14
2022-08-23T02:52:32.690Z,80.50
2022-08-23T02:57:39.583Z,80.35
2022-08-23T03:02:42.412Z,81.53
2022-08-23T03:07:46.512Z,81.49
2022-08-23T03:12:55.093Z,81.83
2022-08-23T03:17:56.820Z,81.25
2022-08-23T03:23:06.421Z,81.63
2022-08-23T03:28:08.849Z,81.27
2022-08-23T03:33:20.893Z,81.45
2022-08-23T03:38:28.484Z,81.77
2022-08-23T03:43:33.115Z,82.23
2022-08-23T03:48:37.806Z,81.54
2022-08-23T03:53:46.552Z,82.03
2022-08-23T03:58:50.173Z,81.90
2022-08-23T04:03:52.001Z,82.24
2022-08-23T04:08:59.390Z,82.49
2022-08-23T04:14:08.233Z,82.96
2022-08-23T04:19:16.055Z,83.00
2022-08-23T04:24:34.842Z,82.83
2022-08-23T04:29:40.075Z,82.58
2022-08-23T04:34:45.673Z,83.06
2022-08-23T04:40:12.044Z,82.15
2022-08-23T04:45:20.102Z,81.02
2022-08-23T04:50:28.026Z,81.63
2022-08-23T04:55:52.204Z,80.79
2022-08-23T05:00:54.665Z,81.53
2022-08-23T05:06:05.081Z,81.52
2022-08-23T05:11:16.009Z,81.48
2022-08-23T05:16:18.168Z,82.21
2022-08-23T05:21:33.706Z,83.60
2022-08-23T05:26:38.046Z,83.17
2022-08-23T05:31:44.216Z,82.72
2022-08-23T05:36:55.623Z,83.19
2022-08-23T05:42:03.740Z,82.38
2022-08-23T05:47:10.491Z,81.78
2022-08-23T05:52:21.428Z,81.41
2022-08-23T05:57:25.960Z,80.66
2022-08-23T06:02:27.726Z,79.83
2022-08-23T06:07:39.039Z,79.46
2022-08-23T06:12:51.503Z,78.54
2022-08-23T06:17:56.582Z,77.65
2022-08-23T06:22:58.988Z,77.49
2022-08-23T06:28:04.502Z,76.60
2022-08-23T06:33:09.159Z,76.29
2022-08-23T06:38:17.608Z,75.36
2022-08-23T06:43:28.031Z,75.12
2022-08-23T06:48:51.006Z,75.20
2022-08-23T06:53:56.590Z,73.08
2022-08-23T06:59:16.531Z,73.88
2022-08-23T07:04:40.408Z,73.57
2022-08-23T07:10:01.482Z,72.65
2022-08-23T07:15:05.002Z,72.04
2022-08-23T07:20:07.462Z,71.65
2022-08-23T07:25:12.788Z,71.83
2022-08-23T07:30:23.568Z,71.29
2022-08-23T07:35:31.118Z,71.17
2022-08-23T07:40:38.837Z,71.19
2022-08-23T07:45:45.950Z,71.35
2022-08-23T07:51:02.271Z,70.65
2022-08-23T07:56:08.399Z,70.52
2022-08-23T08:01:30.103Z,68.92
2022-08-23T08:06:43.970Z,67.11
2022-08-23T08:11:52.517Z,66.42
2022-08-23T08:17:01.355Z,64.89
2022-08-23T08:22:23.275Z,65.48
2022-08-23T08:28:03.563Z,65.27
2022-08-23T08:33:09.242Z,63.80
2022-08-23T08:38:14.749Z,63.81
2022-08-23T08:43:34.259Z,64.73
2022-08-23T08:48:41.513Z,62.98
2022-08-23T08:53:46.243Z,62.22
2022-08-23T08:58:57.875Z,62.69
2022-08-23T09:04:03.348Z,61.49
2022-08-23T09:09:36.914Z,59.96
2022-08-23T09:14:48.135Z,60.02
2022-08-23T09:19:52.977Z,59.84
2022-08-23T09:25:00.713Z,58.41
2022-08-23T09:30:14.572Z,58.20
2022-08-23T09:35:24.320Z,57.51
2022-08-23T09:40:49.274Z,57.38
2022-08-23T09:45:52.289Z,57.60
2022-08-23T09:51:11.215Z,55.19
2022-08-23T09:56:28.794Z,55.71
2022-08-23T10:01:38.748Z,55.11
2022-08-23T10:06:46.801Z,56.01
2022-08-23T10:11:49.136Z,57.17
2022-08-23T10:17:15.829Z,55.55
2022-08-23T10:22:30.890Z,55.39
2022-08-23T10:28:21.846Z,51.68
2022-08-23T10:33:33.809Z,50.72
2022-08-23T10:38:47.201Z,50.84
2022-08-23T10:44:04.817Z,50.21
2022-08-23T10:49:08.067Z,50.20
2022-08-23T10:54:46.353Z,48.32
2022-08-23T10:59:52.896Z,47.98
2022-08-23T11:05:19.256Z,46.78
2022-08-23T11:10:55.906Z,48.43
2022-08-23T11:16:29.572Z,45.38
2022-08-23T11:21:47.204Z,44.38
2022-08-23T11:26:52.101Z,45.34
2022-08-23T11:32:20.103Z,44.77
2022-08-23T11:37:29.992Z,44.78
2022-08-23T11:42:38.227Z,44.47
2022-08-23T11:47:44.600Z,44.52
2022-08-23T11:52:47.684Z,43.15
2022-08-23T11:57:57.137Z,41.79
2022-08-23T12:03:03.301Z,42.32
2022-08-23T12:08:08.195Z,39.97
2022-08-23T12:13:19.605Z,41.33
2022-08-23T12:18:25.334Z,41.82
2022-08-23T12:23:30.866Z,38.96
2022-08-23T12:28:43.773Z,37.19
2022-08-23T12:33:53.865Z,38.56
2022-08-23T12:38:58.021Z,37.18
2022-08-23T12:44:08.766Z,36.40
2022-08-23T12:49:25.849Z,35.96
2022-08-23T12:54:57.741Z,35.86
2022-08-23T13:00:21.233Z,33.78
2022-08-23T13:05:45.948Z,34.57
2022-08-23T13:10:48.322Z,34.40
2022-08-23T13:15:52.512Z,33.03
2022-08-23T13:21:23.057Z,31.81
2022-08-23T13:26:42.513Z,32.85
2022-08-23T13:31:52.394Z,31.79
2022-08-23T13:36:58.802Z,30.64
2022-08-23T13:42:07.651Z,30.51
2022-08-23T13:47:22.385Z,31.94
2022-08-23T13:57:51.129Z,30.39
2022-08-23T14:02:53.192Z,29.95
2022-08-23T14:07:56.554Z,29.07
2022-08-23T14:13:02.215Z,27.45
2022-08-23T14:18:04.579Z,28.94
2022-08-23T14:23:12.244Z,27.44
2022-08-23T14:28:14.381Z,27.10
2022-08-23T14:33:21.648Z,28.70
2022-08-23T14:38:28.169Z,28.00
2022-08-23T14:43:30.565Z,27.63
2022-08-23T14:48:36.923Z,27.13
2022-08-23T14:53:38.816Z,29.65
2022-08-23T14:58:41.895Z,29.68
2022-08-23T15:03:43.721Z,29.72
2022-08-23T15:08:53.868Z,29.25
2022-08-23T15:13:56.794Z,28.39
2022-08-23T15:19:01.744Z,28.90
2022-08-23T15:24:04.627Z,28.46
2022-08-23T15:29:07.545Z,28.90
2022-08-23T15:34:12.694Z,26.52
2022-08-23T15:39:19.403Z,27.35
2022-08-23T15:44:21.517Z,26.30
2022-08-23T15:49:26.369Z,25.74
2022-08-23T15:54:32.854Z,28.37
2022-08-23T15:59:37.657Z,28.12
2022-08-23T16:04:44.241Z,27.24
2022-08-23T16:09:48.393Z,26.26
2022-08-23T16:14:52.559Z,25.19
2022-08-23T16:19:56.919Z,25.06
2022-08-23T16:25:01.716Z,25.16
2022-08-23T16:30:06.079Z,25.56
2022-08-23T16:35:14.920Z,28.43
2022-08-23T16:40:16.811Z,28.64
2022-08-23T16:45:26.034Z,29.70
2022-08-23T16:50:32.728Z,32.00
2022-08-23T16:55:35.421Z,31.84
2022-08-23T17:00:37.400Z,31.98
2022-08-23T17:05:44.230Z,33.63
2022-08-23T17:10:49.435Z,34.83
2022-08-23T17:15:53.441Z,36.00
2022-08-23T17:21:03.043Z,37.31
2022-08-23T17:26:04.900Z,36.97
2022-08-23T17:31:06.691Z,39.34
2022-08-23T17:36:31.162Z,41.72
2022-08-23T17:41:40.956Z,40.55
2022-08-23T17:47:02.967Z,38.85
2022-08-23T17:52:12.177Z,40.94
2022-08-23T17:57:16.706Z,40.84
2022-08-23T18:02:18.679Z,41.77
2022-08-23T18:07:22.514Z,40.79
2022-08-23T18:12:31.308Z,42.27
2022-08-23T18:17:38.773Z,39.23
2022-08-23T18:22:47.582Z,41.78
2022-08-23T18:28:07.065Z,41.06
2022-08-23T18:33:12.934Z,43.17
2022-08-23T18:38:20.692Z,42.41
2022-08-23T18:43:26.972Z,44.50
2022-08-23T18:48:53.538Z,45.24
2022-08-23T18:53:55.920Z,43.73
2022-08-23T18:59:01.835Z,43.92
2022-08-23T19:04:05.220Z,43.80
2022-08-23T19:09:08.533Z,44.05
2022-08-23T19:14:19.386Z,44.15
2022-08-23T19:19:23.044Z,44.04
2022-08-23T19:24:25.170Z,43.60
2022-08-23T19:29:31.960Z,43.43
2022-08-23T19:34:34.563Z,44.05
2022-08-23T19:39:36.887Z,43.67
2022-08-23T19:44:43.897Z,44.20
2022-08-23T19:49:48.479Z,44.18
2022-08-23T19:54:53.196Z,44.30
2022-08-23T20:00:00.684Z,44.41
2022-08-23T20:05:06.748Z,44.70
2022-08-23T20:10:14.210Z,45.50
2022-08-23T20:15:18.415Z,44.87
2022-08-23T20:20:20.407Z,44.99
2022-08-23T20:25:24.496Z,45.09
2022-08-23T20:30:26.349Z,45.16
2022-08-23T20:35:31.627Z,45.66
2022-08-23T20:40:37.860Z,45.74
2022-08-23T20:45:41.479Z,46.65
2022-08-23T20:50:47.926Z,47.88
2022-08-23T20:55:52.130Z,46.83
2022-08-23T21:00:56.530Z,47.72
2022-08-23T21:06:04.029Z,47.86
2022-08-23T21:11:06.095Z,48.10
2022-08-23T21:16:08.210Z,47.47
2022-08-23T21:21:10.209Z,47.53
2022-08-23T21:26:11.914Z,48.49
2022-08-23T21:31:19.547Z,47.95
2022-08-23T21:36:25.248Z,48.54
2022-08-23T21:41:36.977Z,48.89
2022-08-23T21:46:41.648Z,49.29
2022-08-23T21:51:45.622Z,48.99
2022-08-23T21:56:53.093Z,49.97
2022-08-23T22:01:58.300Z,50.45
2022-08-23T22:07:00.757Z,50.52
2022-08-23T22:12:07.651Z,50.43
2022-08-23T22:17:12.099Z,50.61
2022-08-23T22:22:14.979Z,50.23
2022-08-23T22:27:22.481Z,50.20
2022-08-23T22:32:27.330Z,50.08
2022-08-23T22:37:34.648Z,49.38
2022-08-23T22:42:40.520Z,51.00
2022-08-23T22:47:42.234Z,50.77
2022-08-23T22:52:43.997Z,50.72
2022-08-23T22:57:47.995Z,50.73
2022-08-23T23:02:54.839Z,50.85
2022-08-23T23:08:17.746Z,51.27
2022-08-23T23:13:21.749Z,51.71
2022-08-23T23:18:26.833Z,51.14
2022-08-23T23:23:32.006Z,51.43
2022-08-23T23:28:41.674Z,51.68
2022-08-23T23:33:43.338Z,52.15
2022-08-23T23:38:47.483Z,52.26
2022-08-23T23:43:49.381Z,52.91
2022-08-23T23:48:54.660Z,52.77
2022-08-23T23:53:57.760Z,52.28
2022-08-23T23:59:00.820Z,53.41
